createdAt,value
2023-01-28T00:04:45.951Z,17.58
2023-01-28T00:14:47.459Z,15.40
2023-01-28T00:24:48.947Z,18.23
2023-01-28T00:34:50.447Z,17.80
2023-01-28T00:44:51.935Z,18.47
2023-01-28T00:54:53.446Z,18.90
2023-01-28T01:04:55.171Z,15.93
2023-01-28T01:14:57.278Z,18.17
2023-01-28T01:24:58.801Z,15.98
2023-01-28T01:35:00.593Z,17.83
2023-01-28T01:45:07.611Z,19.10
2023-01-28T01:55:16.886Z,19.77
2023-01-28T02:05:21.373Z,18.73
2023-01-28T02:15:25.515Z,18.17
2023-01-28T02:25:48.654Z,19.50
2023-01-28T02:35:54.071Z,14.03
2023-01-28T02:45:55.655Z,16.07
2023-01-28T02:56:03.029Z,16.38
2023-01-28T03:06:14.336Z,14.90
2023-01-28T03:16:15.948Z,12.30
2023-01-28T03:26:21.133Z,14.63
2023-01-28T03:36:23.082Z,14.95
2023-01-28T03:46:24.608Z,17.30
2023-01-28T03:56:26.126Z,18.00
2023-01-28T04:06:28.205Z,16.83
2023-01-28T04:16:29.976Z,21.07
2023-01-28T04:26:31.797Z,16.63
2023-01-28T04:36:33.340Z,15.38
2023-01-28T04:46:34.863Z,15.63
2023-01-28T04:56:36.537Z,16.27
2023-01-28T05:06:38.056Z,19.95
2023-01-28T05:16:39.561Z,20.67
2023-01-28T05:26:41.467Z,18.03
2023-01-28T05:36:43.010Z,22.70
2023-01-28T05:46:44.542Z,18.08
2023-01-28T05:56:46.084Z,19.97
2023-01-28T06:06:47.621Z,20.17
2023-01-28T06:16:49.157Z,18.40
2023-01-28T06:26:50.718Z,21.83
2023-01-28T06:36:52.334Z,20.60
2023-01-28T06:46:53.891Z,21.25
2023-01-28T06:56:55.450Z,23.23
2023-01-28T07:06:56.967Z,22.73
2023-01-28T07:16:58.526Z,23.93
2023-01-28T07:27:00.098Z,24.27
2023-01-28T07:37:02.911Z,20.80
2023-01-28T07:47:05.792Z,23.70
2023-01-28T07:57:09.296Z,24.10
2023-01-28T08:07:10.859Z,25.73
2023-01-28T08:17:12.384Z,20.90
2023-01-28T08:27:13.900Z,23.60
2023-01-28T08:37:15.431Z,21.77
2023-01-28T08:47:17.000Z,21.03
2023-01-28T08:57:18.550Z,20.83
2023-01-28T09:07:20.076Z,21.43
2023-01-28T09:17:22.528Z,21.58
2023-01-28T09:27:24.069Z,17.43
2023-01-28T09:37:25.692Z,18.03
2023-01-28T09:47:52.726Z,17.42
2023-01-28T09:57:54.643Z,19.20
2023-01-28T10:08:22.076Z,20.20
2023-01-28T10:18:41.061Z,21.93
2023-01-28T10:28:43.320Z,19.50
2023-01-28T10:38:47.735Z,20.13
2023-01-28T10:48:58.051Z,19.13
2023-01-28T10:59:02.328Z,20.15
2023-01-28T11:09:03.885Z,19.83
2023-01-28T11:19:06.259Z,21.50
2023-01-28T11:29:23.362Z,21.77
2023-01-28T11:39:26.308Z,25.53
2023-01-28T11:49:27.769Z,22.35
2023-01-28T11:59:32.183Z,22.20
2023-01-28T12:09:39.555Z,22.17
2023-01-28T12:19:49.888Z,27.08
2023-01-28T12:30:06.520Z,26.27
2023-01-28T12:40:37.108Z,26.03
2023-01-28T12:50:56.665Z,23.77
2023-01-28T13:01:05.197Z,24.27
2023-01-28T13:11:14.126Z,27.40
2023-01-28T13:21:17.094Z,24.37
2023-01-28T13:31:22.234Z,19.67
2023-01-28T13:41:23.787Z,23.15
2023-01-28T13:51:31.497Z,21.60
2023-01-28T14:01:56.346Z,19.63
2023-01-28T14:12:35.093Z,18.90
2023-01-28T14:22:36.701Z,23.00
2023-01-28T14:32:49.541Z,22.05
2023-01-28T14:42:55.363Z,20.33
2023-01-28T14:53:29.299Z,23.47
2023-01-28T15:03:31.385Z,20.50
2023-01-28T15:13:38.819Z,23.00
2023-01-28T15:23:43.482Z,24.65
2023-01-28T15:33:44.998Z,17.97
2023-01-28T15:43:49.142Z,20.03
2023-01-28T15:53:53.928Z,18.30
2023-01-28T16:04:06.592Z,18.67
2023-01-28T16:14:24.886Z,18.10
2023-01-28T16:24:29.136Z,17.57
2023-01-28T16:34:30.752Z,18.33
2023-01-28T16:44:32.296Z,21.90
2023-01-28T16:54:34.699Z,19.63
2023-01-28T17:04:36.349Z,22.57
2023-01-28T17:14:37.910Z,20.92
2023-01-28T17:24:39.418Z,22.03
2023-01-28T17:34:40.960Z,26.17
2023-01-28T17:44:42.901Z,23.90
2023-01-28T17:54:44.408Z,24.73
2023-01-28T18:04:45.945Z,21.77
2023-01-28T18:14:47.461Z,22.77
2023-01-28T18:24:49.183Z,19.60
2023-01-28T18:34:50.751Z,26.98
2023-01-28T18:44:52.319Z,21.63
2023-01-28T18:54:53.924Z,21.53
2023-01-28T19:04:56.021Z,23.67
2023-01-28T19:14:57.626Z,22.85
2023-01-28T19:24:59.159Z,24.57
2023-01-28T19:35:00.731Z,27.23
2023-01-28T19:45:04.046Z,25.75
2023-01-28T19:55:06.249Z,34.93
2023-01-28T20:05:08.320Z,24.27
2023-01-28T20:15:10.646Z,22.75
2023-01-28T20:25:12.235Z,23.63
2023-01-28T20:35:14.084Z,22.13
2023-01-28T20:45:16.013Z,24.75
2023-01-28T20:55:17.725Z,26.07
2023-01-28T21:05:19.451Z,24.47
2023-01-28T21:15:21.034Z,23.77
2023-01-28T21:25:22.770Z,29.13
2023-01-28T21:35:24.301Z,37.13
2023-01-28T21:45:26.190Z,35.33
2023-01-28T21:55:27.747Z,37.00
2023-01-28T22:05:29.287Z,34.73
2023-01-28T22:15:32.347Z,27.25
2023-01-28T22:25:37.076Z,28.13
2023-01-28T22:35:38.661Z,25.27
2023-01-28T22:45:40.224Z,28.77
2023-01-28T22:55:41.779Z,26.40
2023-01-28T23:05:43.321Z,23.23
2023-01-28T23:15:46.216Z,24.40
2023-01-28T23:25:47.871Z,27.10
2023-01-28T23:35:49.395Z,23.63
2023-01-28T23:45:50.939Z,29.00
2023-01-28T23:55:52.474Z,30.67
